Latest Weather Observations for Archerfield

IDQ60801

Issued at 11:32 pm EST Monday 6 July 2015 (issued every 30 minutes, with the page automatically refreshed every 10 minutes)

About weather observations | Map of weather stations | Latest weather observations for QLD | Other Formats
Station Details ID: 040211 Name: ARCHERFIELD AIRPORT Lat: -27.57 Lon: 153.01 Height: 12.5 m
Data from the previous 72 hours. | See also: Recent months at Archerfield
Date/Time
EST
Temp
°C
App
Temp
°C
Dew
Point
Rel
Hum
%
Delta-T
°C
Wind Press
QNH
hPa
Press
MSL
hPa
Rain
since 9 am
mm
Dir
 
Spd
km/h
Gust
km/h
Spd
kts
Gust
kts
06/11:30pm 11.4 10.6 9.7 89 0.9 S 4 9 2 5 1016.6 1016.6 0.0
06/11:00pm 11.7 11.3 9.6 87 1.1 S 2 9 1 5 1016.7 1016.7 0.0
06/10:30pm 13.0 12.5 10.7 86 1.2 SSW 4 13 2 7 1016.8 1016.8 0.0
06/10:00pm 11.9 10.2 9.8 87 1.1 SW 9 11 5 6 1016.5 1016.5 0.0
06/09:30pm 11.8 11.6 9.2 84 1.3 CALM 0 4 0 2 1016.2 1016.2 0.0
06/09:00pm 13.2 11.7 9.3 77 2.0 NNE 7 9 4 5 1016.2 1016.2 0.0
06/08:30pm 14.9 14.0 10.5 75 2.3 NNE 6 7 3 4 1016.2 1016.2 0.0
06/08:00pm 14.8 14.9 10.2 74 2.4 CALM 0 6 0 3 1016.2 1016.2 0.0
06/07:30pm 15.8 14.5 10.1 69 3.0 NNE 7 11 4 6 1016.1 1016.1 0.0
06/07:00pm 15.7 14.4 9.8 68 3.1 N 7 11 4 6 1015.9 1015.9 0.0
06/06:30pm 15.8 14.4 9.7 67 3.2 N 7 11 4 6 1015.7 1015.7 0.0
06/06:00pm 16.0 13.7 9.0 63 3.6 NNW 11 13 6 7 1015.5 1015.5 0.0
06/05:30pm 17.9 15.7 9.5 58 4.4 N 11 15 6 8 1015.1 1015.1 0.0
06/05:00pm 19.6 17.7 9.2 51 5.5 NNW 9 13 5 7 1015.0 1015.0 0.0
06/04:30pm 21.6 19.0 9.5 46 6.5 N 13 19 7 10 1014.9 1014.9 0.0
06/04:00pm 22.8 19.8 9.2 42 7.3 NW 15 19 8 10 1014.9 1014.9 0.0
06/03:30pm 23.2 19.9 9.6 42 7.4 NW 17 24 9 13 1015.0 1015.0 0.0
06/03:00pm 23.4 20.2 9.8 42 7.4 NNW 17 24 9 13 1015.2 1015.2 0.0
06/02:30pm 23.1 18.9 8.4 39 7.8 WNW 20 32 11 17 1015.4 1015.4 0.0
06/02:00pm 23.6 19.8 7.7 36 8.3 WNW 17 30 9 16 1015.6 1015.6 0.0
06/01:30pm 23.3 19.0 7.8 37 8.1 NNW 20 30 11 16 1015.8 1015.8 0.0
06/01:00pm 23.0 20.6 8.7 40 7.6 NW 11 22 6 12 1016.3 1016.3 0.0
06/12:30pm 22.2 21.1 10.0 46 6.6 NW 6 9 3 5 1017.0 1017.0 0.0
06/12:00pm 21.2 20.2 11.0 52 5.6 WSW 7 11 4 6 1017.6 1017.6 0.0
06/11:30am 19.5 18.7 9.7 53 5.2 SW 4 7 2 4 1018.3 1018.3 0.0
06/11:00am 18.3 17.1 9.4 56 4.7 WSW 6 9 3 5 1018.7 1018.7 0.0
06/10:30am 17.3 15.6 10.0 62 3.9 W 9 13 5 7 1019.2 1019.2 0.0
06/10:00am 16.1 14.9 10.2 68 3.1 SW 7 11 4 6 1019.5 1019.5 0.0
06/09:30am 14.4 13.2 9.6 73 2.5 SW 6 9 3 5 1019.8 1019.8 0.0
06/09:00am 13.2 12.4 9.6 79 1.8 WSW 4 11 2 6 1020.1 1020.1 0.0
06/08:30am 11.7 11.4 8.6 81 1.5 CALM 0 0 0 0 1020.0 1020.0 0.0
06/08:00am 10.7 10.4 8.6 87 1.0 CALM 0 0 0 0 1019.9 1019.9 0.0
06/07:00am 6.8 5.8 5.7 93 0.5 CALM 0 0 0 0 1019.6 1019.6 0.0
06/06:30am 6.4 5.4 5.5 94 0.4 CALM 0 0 0 0 1019.7 1019.7 0.0
06/06:00am 7.1 6.2 6.2 94 0.4 CALM 0 0 0 0 1019.6 1019.6 0.0
06/05:30am 7.3 5.4 6.6 95 0.3 SSE 6 7 3 4 1019.6 1019.6 0.0
06/05:00am 7.3 5.3 6.4 94 0.4 SSW 6 9 3 5 1019.5 1019.5 0.0
06/04:30am 7.2 6.4 6.3 94 0.4 CALM 0 0 0 0 1019.4 1019.4 0.0
06/04:00am 7.3 6.4 6.1 92 0.5 CALM 0 0 0 0 1019.4 1019.4 0.0
06/03:30am 8.4 7.4 7.5 94 0.4 SSW 2 6 1 3 1019.6 1019.6 0.0
06/03:00am 7.9 5.9 7.1 95 0.4 SW 7 9 4 5 1019.7 1019.7 0.0
06/02:30am 8.2 7.2 7.3 94 0.4 SSW 2 7 1 4 1019.6 1019.6 0.0
06/02:00am 8.5 7.8 7.1 91 0.7 CALM 0 0 0 0 1019.8 1019.8 0.0
06/01:00am 9.9 7.9 8.7 92 0.6 SSW 9 13 5 7 1020.4 1020.4 0.0
06/12:30am 10.5 8.1 8.8 89 0.8 S 11 13 6 7 1020.5 1020.5 0.0
06/12:00am 10.1 8.0 8.4 89 0.8 S 9 11 5 6 1020.6 1020.6 0.0
 
Date/Time
EST
Temp
°C
App
Temp
°C
Dew
Point
Rel
Hum
%
Delta-T
°C
Wind Press
QNH
hPa
Press
MSL
hPa
Rain
since 9 am
mm
Dir
 
Spd
km/h
Gust
km/h
Spd
kts
Gust
kts
05/11:30pm 10.7 9.0 8.5 86 1.1 S 7 11 4 6 1020.5 1020.5 0.0
05/11:00pm 11.6 10.1 9.3 86 1.2 S 7 9 4 5 1020.5 1020.5 0.0
05/10:30pm 13.2 13.4 10.6 84 1.4 CALM 0 0 0 0 1020.7 1020.7 0.0
05/10:00pm 13.0 12.9 9.6 80 1.7 CALM 0 0 0 0 1020.7 1020.7 0.0
05/09:30pm 13.2 12.4 9.6 79 1.8 NNE 4 7 2 4 1020.8 1020.8 0.0
05/09:00pm 13.1 11.3 9.5 79 1.8 NNE 9 9 5 5 1020.7 1020.7 0.0
05/08:30pm 13.3 11.0 9.0 75 2.2 N 11 13 6 7 1020.4 1020.4 0.0
05/08:00pm 13.8 11.0 8.6 71 2.6 NNE 13 13 7 7 1020.2 1020.2 0.0
05/07:30pm 14.4 12.8 7.9 65 3.2 NE 6 9 3 5 1020.2 1020.2 0.0
05/07:00pm 15.5 13.3 7.8 60 3.8 NNE 9 9 5 5 1020.1 1020.1 0.0
05/06:30pm 15.8 14.1 7.6 58 4.1 NNE 6 7 3 4 1019.9 1019.9 0.0
05/06:00pm 16.7 14.9 8.1 57 4.3 NNE 7 9 4 5 1019.8 1019.8 0.0
05/05:30pm 15.4 13.0 6.9 57 4.2 N 9 11 5 6 1019.7 1019.7 0.0
05/05:00pm 18.5 15.5 7.6 49 5.5 N 13 19 7 10 1019.6 1019.6 0.0
05/04:30pm 20.2 17.2 7.6 44 6.5 NNW 13 15 7 8 1019.5 1019.5 0.0
05/04:00pm 21.3 17.9 7.5 41 7.1 NNW 15 19 8 10 1019.3 1019.3 0.0
05/03:30pm 21.8 18.7 7.2 39 7.5 NNW 13 19 7 10 1019.4 1019.4 0.0
05/03:00pm 22.0 18.1 7.0 38 7.7 NNW 17 24 9 13 1019.5 1019.5 0.0
05/02:30pm 22.1 18.6 7.1 38 7.7 NW 15 22 8 12 1019.5 1019.5 0.0
05/02:00pm 22.5 19.4 9.0 42 7.2 WNW 15 22 8 12 1019.7 1019.7 0.0
05/01:30pm 22.2 17.8 7.2 38 7.7 W 20 32 11 17 1019.9 1019.9 0.0
05/01:00pm 20.8 16.4 6.7 40 7.1 WNW 19 26 10 14 1020.3 1020.3 0.0
05/12:30pm 21.6 19.9 11.3 52 5.7 W 11 20 6 11 1020.8 1020.8 0.0
05/12:00pm 20.7 19.9 11.6 56 5.0 WNW 7 15 4 8 1021.5 1021.5 0.0
05/11:30am 19.3 18.4 11.3 60 4.4 W 7 13 4 7 1022.0 1022.0 0.0
05/11:00am 19.1 18.0 11.9 63 4.0 WSW 9 15 5 8 1022.6 1022.6 0.0
05/10:30am 17.8 16.7 11.8 68 3.3 WSW 9 13 5 7 1023.0 1023.0 0.0
05/10:00am 16.8 15.6 11.7 72 2.8 W 9 13 5 7 1023.2 1023.2 0.0
05/09:30am 15.2 14.3 11.2 77 2.1 W 7 9 4 5 1023.3 1023.3 0.0
05/09:00am 14.3 13.3 11.1 81 1.7 W 7 13 4 7 1023.2 1023.2 0.0
05/08:30am 12.9 11.4 10.6 86 1.2 W 9 11 5 6 1023.0 1023.0 0.0
05/08:00am 11.3 11.4 10.0 92 0.7 CALM 0 6 0 3 1022.9 1022.9 0.0
05/07:30am 9.1 8.8 8.5 96 0.3 CALM 0 0 0 0 1022.7 1022.7 0.0
05/07:00am 7.3 4.8 6.7 96 0.3 SSW 9 9 5 5 1022.5 1022.5 0.0
05/06:38am 7.3 6.5 6.7 96 0.3 CALM 0 0 0 0 1022.2 1022.2 0.0
05/06:30am 6.8 5.9 6.1 95 0.3 CALM 0 0 0 0 1022.1 1022.1 0.0
05/06:08am 6.9 6.0 6.0 94 0.4 CALM 0 0 0 0 1021.9 1021.9 0.0
05/06:00am 6.4 5.3 5.2 92 0.5 CALM 0 0 0 0 1021.8 1021.8 0.0
05/05:30am 8.0 6.6 7.2 95 0.4 SW 4 6 2 3 1021.6 1021.6 0.0
05/05:00am 7.5 6.7 6.6 94 0.4 CALM 0 0 0 0 1021.4 1021.4 0.0
05/04:30am 8.0 7.4 7.2 95 0.4 CALM 0 0 0 0 1021.2 1021.2 0.0
05/04:00am 8.2 7.6 7.6 96 0.3 CALM 0 0 0 0 1021.2 1021.2 0.0
05/03:30am 8.2 7.6 7.6 96 0.3 CALM 0 0 0 0 1021.3 1021.3 0.0
05/03:02am 7.3 6.4 6.2 93 0.5 CALM 0 0 0 0 1021.5 1021.5 0.0
05/03:00am 7.8 7.1 6.9 94 0.4 CALM 0 4 0 2 1021.5 1021.5 0.0
05/02:30am 8.9 8.5 8.1 95 0.4 CALM 0 0 0 0 1021.7 1021.7 0.0
05/02:00am 9.3 8.9 8.4 94 0.4 CALM 0 0 0 0 1021.9 1021.9 0.0
05/01:30am 9.6 9.0 8.8 95 0.4 SE 2 6 1 3 1022.0 1022.0 0.0
05/01:00am 9.5 9.2 8.7 95 0.4 CALM 0 2 0 1 1022.2 1022.2 0.0
05/12:30am 9.1 8.7 8.2 94 0.4 CALM 0 0 0 0 1022.3 1022.3 0.0
05/12:00am 9.5 7.6 8.9 96 0.3 SW 9 9 5 5 1022.3 1022.3 0.0
 
Date/Time
EST
Temp
°C
App
Temp
°C
Dew
Point
Rel
Hum
%
Delta-T
°C
Wind Press
QNH
hPa
Press
MSL
hPa
Rain
since 9 am
mm
Dir
 
Spd
km/h
Gust
km/h
Spd
kts
Gust
kts
04/11:30pm 9.4 9.0 8.3 93 0.5 CALM 0 0 0 0 1022.3 1022.3 0.0
04/11:00pm 9.6 8.1 8.5 93 0.5 S 6 7 3 4 1022.4 1022.4 0.0
04/10:30pm 9.9 9.6 8.7 92 0.6 CALM 0 6 0 3 1022.4 1022.4 0.0
04/10:00pm 10.4 8.9 9.2 92 0.6 SE 7 9 4 5 1022.4 1022.4 0.0
04/09:30pm 9.6 8.0 7.9 89 0.8 SSW 6 6 3 3 1022.4 1022.4 0.0
04/09:00pm 10.8 10.2 8.9 88 0.9 S 2 9 1 5 1022.4 1022.4 0.0
04/08:30pm 12.8 13.0 10.5 86 1.2 CALM 0 0 0 0 1022.2 1022.2 0.0
04/08:00pm 13.7 14.0 11.0 84 1.4 CALM 0 0 0 0 1022.0 1022.0 0.0
04/07:30pm 12.8 12.6 10.3 85 1.3 N 2 6 1 3 1021.8 1021.8 0.0
04/07:00pm 13.2 13.0 10.6 84 1.4 NE 2 6 1 3 1021.4 1021.4 0.0
04/06:30pm 13.7 12.5 10.3 80 1.8 ENE 7 9 4 5 1021.0 1021.0 0.0
04/06:00pm 14.7 13.2 10.7 77 2.1 ENE 9 11 5 6 1020.6 1020.6 0.0
04/05:30pm 15.9 15.0 9.3 65 3.4 NNW 4 11 2 6 1020.4 1020.4 0.0
04/05:00pm 17.3 15.9 9.7 61 4.0 NNW 7 9 4 5 1020.2 1020.2 0.0
04/04:30pm 19.3 17.8 10.6 57 4.7 NW 9 11 5 6 1020.2 1020.2 0.0
04/04:00pm 20.5 19.5 10.3 52 5.5 W 6 9 3 5 1020.2 1020.2 0.0
04/03:30pm 19.3 18.4 10.6 57 4.7 W 6 7 3 4 1020.5 1020.5 0.0
04/03:00pm 19.5 18.5 10.2 55 5.0 WNW 6 9 3 5 1020.8 1020.8 0.0
04/02:30pm 20.9 18.9 10.1 50 5.8 NW 11 15 6 8 1020.7 1020.7 0.0
04/02:00pm 20.5 18.8 9.7 50 5.8 W 9 19 5 10 1020.7 1020.7 0.0
04/01:30pm 20.5 18.8 9.7 50 5.8 W 9 17 5 9 1021.0 1021.0 0.0
04/01:00pm 20.1 18.3 9.4 50 5.7 W 9 15 5 8 1021.4 1021.4 0.0
04/12:30pm 19.7 17.9 9.3 51 5.5 W 9 17 5 9 1021.8 1021.8 0.0
04/12:00pm 19.3 17.5 9.5 53 5.2 WSW 9 15 5 8 1022.5 1022.5 0.0
04/11:30am 18.6 16.4 9.4 55 4.8 W 11 13 6 7 1023.0 1023.0 0.0
04/11:00am 17.6 15.2 8.5 55 4.7 W 11 19 6 10 1023.5 1023.5 0.0
04/10:30am 16.3 13.4 8.0 58 4.2 WSW 13 15 7 8 1023.9 1023.9 0.0
04/10:00am 15.8 12.6 8.5 62 3.7 WSW 15 19 8 10 1024.2 1024.2 0.0
04/09:30am 14.9 11.7 8.4 65 3.3 WSW 15 20 8 11 1024.4 1024.4 0.0
04/09:00am 13.0 10.0 7.9 71 2.5 WSW 13 19 7 10 1024.5 1024.5 0.0
04/08:30am 12.3 10.1 8.0 75 2.1 SW 9 13 5 7 1024.3 1024.3 0.0
04/08:00am 11.3 9.4 7.6 78 1.8 WSW 7 9 4 5 1024.0 1024.0 0.0
04/07:30am 9.8 7.4 6.9 82 1.4 SW 9 11 5 6 1023.8 1023.8 0.0
04/07:00am 8.7 6.5 6.3 85 1.1 S 7 9 4 5 1023.5 1023.5 0.0
04/06:30am 8.9 7.0 6.7 86 1.0 SW 6 9 3 5 1023.2 1023.2 0.0
04/06:00am 8.2 5.6 6.2 87 0.9 WSW 9 13 5 7 1023.1 1023.1 0.0
04/05:30am 8.4 6.2 6.4 87 0.9 SSW 7 9 4 5 1022.8 1022.8 0.0
04/05:00am 8.2 7.5 6.8 91 0.6 CALM 0 0 0 0 1022.8 1022.8 0.0
04/04:30am 8.4 6.3 6.5 88 0.9 SW 7 9 4 5 1022.4 1022.4 0.0
04/04:00am 9.0 6.6 6.8 86 1.0 S 9 11 5 6 1022.6 1022.6 0.0
04/03:30am 9.5 7.5 7.1 85 1.1 SSE 7 9 4 5 1022.8 1022.8 0.0
04/03:00am 10.0 7.3 7.4 84 1.2 SSW 11 15 6 8 1022.8 1022.8 0.0
04/02:30am 9.6 6.8 6.9 83 1.3 SSW 11 13 6 7 1022.9 1022.9 0.0
04/02:00am 9.0 8.3 6.8 86 1.0 CALM 0 9 0 5 1023.0 1023.0 0.0
04/01:30am 9.4 6.6 6.8 84 1.2 SW 11 13 6 7 1022.9 1022.9 0.0
04/01:00am 9.5 7.5 7.1 85 1.1 SW 7 11 4 6 1022.9 1022.9 0.0
04/12:30am 9.4 6.7 7.5 88 0.9 SW 11 15 6 8 1023.0 1023.0 0.0
04/12:00am 9.4 7.9 7.0 85 1.1 S 4 7 2 4 1023.1 1023.1 0.0

Other Formats:

Comma delimited format used in spreadsheet applications
http://www.bom.gov.au/fwo/IDQ60801/IDQ60801.94575.axf

JavaScript Object Notation format (JSON) in row-major order
http://www.bom.gov.au/fwo/IDQ60801/IDQ60801.94575.json